Time;durP1;ratioP1;P1;durP2;ratioP2;P2;SDS_P1;SDS_P2;PMS_P1;PMS_P2;Temp;Humidity;BMP_temperature;BMP_pressure;BME280_temperature;BME280_humidity;BME280_pressure;Samples;Min_cycle;Max_cycle;Signal;HPM_P1;HPM_P2
2024/01/13 00:00:03;;;;;;;12.90;6.87;;;6.40;77.30;;;;;;5092640;28;20028;-72
2024/01/13 00:02:30;;;;;;;11.70;7.10;;;6.40;77.40;;;;;;5093763;28;20088;-73
2024/01/13 00:04:56;;;;;;;14.00;7.57;;;6.30;77.30;;;;;;5095332;28;20039;-72
2024/01/13 00:07:21;;;;;;;12.37;8.00;;;6.40;77.40;;;;;;5093593;28;20020;-72
2024/01/13 00:09:47;;;;;;;12.30;7.67;;;6.40;77.40;;;;;;5093491;28;20189;-72
2024/01/13 00:12:13;;;;;;;15.17;8.47;;;6.30;77.40;;;;;;5092620;28;20025;-72
2024/01/13 00:14:38;;;;;;;13.70;7.97;;;6.40;77.40;;;;;;5094862;28;20020;-72
2024/01/13 00:17:04;;;;;;;14.97;9.00;;;6.40;77.40;;;;;;5093260;28;20499;-72
2024/01/13 00:19:30;;;;;;;15.50;8.87;;;6.30;77.30;;;;;;5092307;28;20089;-72
2024/01/13 00:21:55;;;;;;;14.47;9.10;;;6.40;77.40;;;;;;5093608;28;20027;-72
2024/01/13 00:24:21;;;;;;;15.20;8.60;;;6.40;77.40;;;;;;5092497;28;20054;-72
2024/01/13 00:26:47;;;;;;;13.43;8.47;;;6.40;77.40;;;;;;5090716;28;20031;-72
2024/01/13 00:29:13;;;;;;;13.90;8.70;;;6.30;77.40;;;;;;5093037;28;20456;-72
2024/01/13 00:31:38;;;;;;;14.17;9.43;;;6.40;77.50;;;;;;5092161;28;20048;-72
2024/01/13 00:34:04;;;;;;;14.00;8.97;;;6.40;77.50;;;;;;5092983;28;20038;-72
2024/01/13 00:36:30;;;;;;;14.37;9.47;;;6.30;77.50;;;;;;5093433;28;20059;-72
2024/01/13 00:38:56;;;;;;;13.23;8.60;;;6.30;77.50;;;;;;5092962;28;20334;-72
2024/01/13 00:41:21;;;;;;;15.87;9.10;;;6.30;77.50;;;;;;5092715;28;20028;-72
2024/01/13 00:43:47;;;;;;;15.17;10.17;;;6.40;77.60;;;;;;5092044;28;20103;-72
2024/01/13 00:46:13;;;;;;;16.13;9.90;;;6.40;77.60;;;;;;5086146;28;20226;-72
2024/01/13 00:48:39;;;;;;;15.40;9.90;;;6.30;77.60;;;;;;5092229;28;20056;-72
2024/01/13 00:51:07;;;;;;;15.83;10.77;;;6.30;77.60;;;;;;5091315;28;20035;-72
2024/01/13 00:53:33;;;;;;;15.40;8.97;;;6.30;77.60;;;;;;5092143;28;20071;-72
2024/01/13 00:55:59;;;;;;;18.73;10.83;;;6.40;77.70;;;;;;5094674;28;20039;-72
2024/01/13 00:58:25;;;;;;;19.10;11.03;;;6.40;77.70;;;;;;5097702;28;20024;-72
2024/01/13 01:00:51;;;;;;;15.93;10.63;;;6.40;77.70;;;;;;5079414;28;20342;-72
2024/01/13 01:03:16;;;;;;;16.93;11.27;;;6.30;77.70;;;;;;5097631;28;20023;-72
2024/01/13 01:05:42;;;;;;;17.70;11.10;;;6.40;77.80;;;;;;5096770;28;20036;-72
2024/01/13 01:08:08;;;;;;;18.37;11.10;;;6.40;77.80;;;;;;5096033;28;20111;-72
2024/01/13 01:10:33;;;;;;;18.43;11.47;;;6.40;77.90;;;;;;5101107;28;20024;-72
2024/01/13 01:12:59;;;;;;;17.63;11.03;;;6.40;77.90;;;;;;5098793;28;20161;-72
2024/01/13 01:15:25;;;;;;;18.63;12.00;;;6.30;77.90;;;;;;5097044;28;20031;-72
2024/01/13 01:17:51;;;;;;;20.93;12.20;;;6.40;77.90;;;;;;5093451;28;20023;-72
2024/01/13 01:20:16;;;;;;;17.60;11.37;;;6.30;77.90;;;;;;5079254;28;20475;-73
2024/01/13 01:22:42;;;;;;;18.90;11.53;;;6.40;77.90;;;;;;5097522;28;20034;-73
2024/01/13 01:25:08;;;;;;;19.07;11.53;;;6.40;77.90;;;;;;5090358;28;20393;-72
2024/01/13 01:27:34;;;;;;;18.47;11.67;;;6.40;77.90;;;;;;5097510;28;20448;-72
2024/01/13 01:29:59;;;;;;;18.97;11.97;;;6.40;77.90;;;;;;5096818;28;20322;-72
2024/01/13 01:32:25;;;;;;;19.77;11.77;;;6.30;77.90;;;;;;5105364;28;20075;-72
2024/01/13 01:34:51;;;;;;;18.97;12.30;;;6.30;77.90;;;;;;5097226;28;20020;-72
2024/01/13 01:37:16;;;;;;;18.07;11.83;;;6.40;77.90;;;;;;5097013;28;20032;-72
2024/01/13 01:39:42;;;;;;;18.87;12.00;;;6.40;77.90;;;;;;5097057;28;20032;-72
2024/01/13 01:42:08;;;;;;;19.87;11.83;;;6.40;77.90;;;;;;5097200;28;20016;-72
2024/01/13 01:44:33;;;;;;;19.60;11.95;;;6.30;77.90;;;;;;5110623;28;20387;-72
2024/01/13 01:47:02;;;;;;;17.87;11.37;;;6.40;77.90;;;;;;5098637;28;20020;-72
2024/01/13 01:49:28;;;;;;;18.67;12.13;;;6.40;78.60;;;;;;5112499;28;20035;-72
2024/01/13 01:51:54;;;;;;;20.17;10.90;;;6.30;77.90;;;;;;5095747;28;20024;-72
2024/01/13 01:54:19;;;;;;;16.53;10.43;;;6.40;77.90;;;;;;5095851;28;20067;-72
2024/01/13 01:56:45;;;;;;;17.67;11.00;;;6.40;77.90;;;;;;5087105;28;20043;-72
2024/01/13 01:59:11;;;;;;;19.93;11.23;;;6.40;77.90;;;;;;5100571;28;20012;-72
2024/01/13 02:01:37;;;;;;;17.50;10.73;;;6.40;77.90;;;;;;5097973;28;20488;-72
2024/01/13 02:04:04;;;;;;;17.97;11.07;;;6.40;77.90;;;;;;5096696;28;20425;-72
2024/01/13 02:06:30;;;;;;;19.03;11.27;;;6.40;77.90;;;;;;5095582;28;20093;-73
2024/01/13 02:08:56;;;;;;;17.43;10.77;;;6.40;77.90;;;;;;5094451;28;20059;-72
2024/01/13 02:11:22;;;;;;;20.40;11.00;;;6.40;77.90;;;;;;5100898;28;20104;-72
2024/01/13 02:13:49;;;;;;;17.53;10.90;;;6.40;77.90;;;;;;5097539;28;20032;-72
2024/01/13 02:16:15;;;;;;;18.27;10.93;;;6.40;77.90;;;;;;5095212;28;20470;-72
2024/01/13 02:18:42;;;;;;;17.87;10.97;;;6.40;77.90;;;;;;5095339;28;20028;-72
2024/01/13 02:21:08;;;;;;;16.80;10.30;;;6.30;77.90;;;;;;5096037;28;20032;-72
2024/01/13 02:23:34;;;;;;;15.33;9.67;;;6.30;77.90;;;;;;5095484;28;20020;-72
2024/01/13 02:26:00;;;;;;;16.97;10.03;;;6.30;78.00;;;;;;5095637;28;20028;-72
2024/01/13 02:28:25;;;;;;;17.40;9.90;;;6.40;78.00;;;;;;5093501;28;20027;-72
2024/01/13 02:30:51;;;;;;;17.37;10.00;;;6.30;78.00;;;;;;5094306;28;20451;-72
2024/01/13 02:33:17;;;;;;;15.40;9.17;;;6.30;78.00;;;;;;5076151;28;20066;-72
2024/01/13 02:35:43;;;;;;;16.03;9.23;;;6.30;78.60;;;;;;5094600;28;20081;-72
2024/01/13 02:38:08;;;;;;;14.80;8.67;;;6.30;78.00;;;;;;5095057;28;20044;-72
2024/01/13 02:40:34;;;;;;;15.53;9.13;;;6.30;78.00;;;;;;5096429;28;20353;-72
2024/01/13 02:43:00;;;;;;;15.33;8.97;;;6.30;78.10;;;;;;5093641;28;20024;-72
2024/01/13 02:45:25;;;;;;;14.70;8.50;;;6.30;78.10;;;;;;5094949;28;20043;-72
2024/01/13 02:48:04;;;;;;;14.47;8.03;;;6.30;78.10;;;;;;5094805;28;20020;-72
2024/01/13 02:50:30;;;;;;;13.50;7.03;;;6.30;78.10;;;;;;5077113;28;20349;-72
2024/01/13 02:52:56;;;;;;;13.17;7.47;;;6.30;78.10;;;;;;5094074;28;20036;-72
2024/01/13 02:55:21;;;;;;;15.23;8.07;;;6.30;78.10;;;;;;5094662;28;20035;-72
2024/01/13 02:57:47;;;;;;;12.80;8.10;;;6.30;78.10;;;;;;5094735;28;20024;-72
2024/01/13 03:00:13;;;;;;;13.63;8.77;;;6.30;78.20;;;;;;5089820;28;20048;-72
2024/01/13 03:02:40;;;;;;;13.83;8.20;;;6.30;78.20;;;;;;5095065;28;20024;-72
2024/01/13 03:05:11;;;;;;;15.10;9.30;;;6.30;78.20;;;;;;5094960;28;20028;-72
2024/01/13 03:07:37;;;;;;;15.27;9.02;;;6.30;78.20;;;;;;5094516;28;20089;-72
2024/01/13 03:10:03;;;;;;;15.17;7.87;;;6.30;78.20;;;;;;5093467;28;20032;-72
2024/01/13 03:12:29;;;;;;;13.60;8.10;;;6.30;78.30;;;;;;5094902;28;20508;-72
2024/01/13 03:14:56;;;;;;;13.30;8.30;;;6.30;78.30;;;;;;5094028;28;20123;-72
2024/01/13 03:17:22;;;;;;;13.20;8.40;;;6.30;78.30;;;;;;5093715;28;20118;-72
2024/01/13 03:19:47;;;;;;;13.57;7.60;;;6.30;78.30;;;;;;5093164;28;20487;-72
2024/01/13 03:22:13;;;;;;;15.00;8.87;;;6.30;78.30;;;;;;5094764;28;20016;-72
2024/01/13 03:24:39;;;;;;;13.80;8.47;;;6.30;78.30;;;;;;5093415;28;20040;-72
2024/01/13 03:27:05;;;;;;;15.57;8.70;;;6.30;78.30;;;;;;5089859;28;20112;-72
2024/01/13 03:29:30;;;;;;;13.70;8.27;;;6.30;78.30;;;;;;5099115;28;20028;-72
2024/01/13 03:31:56;;;;;;;14.83;8.63;;;6.30;78.30;;;;;;5092292;28;20391;-72
2024/01/13 03:34:22;;;;;;;13.97;8.00;;;6.30;78.30;;;;;;5093111;28;20035;-72
2024/01/13 03:36:47;;;;;;;14.10;8.63;;;6.30;78.30;;;;;;5094116;28;20075;-72
2024/01/13 03:39:13;;;;;;;14.70;8.43;;;6.30;78.30;;;;;;5093120;28;20020;-72
2024/01/13 03:41:39;;;;;;;12.93;7.90;;;6.30;78.30;;;;;;5093442;28;20425;-72
2024/01/13 03:44:05;;;;;;;12.13;7.93;;;6.30;78.30;;;;;;5091313;28;20032;-72
2024/01/13 03:46:30;;;;;;;13.77;8.57;;;6.40;78.70;;;;;;5092491;28;20028;-72
2024/01/13 03:48:56;;;;;;;17.07;9.17;;;6.30;78.30;;;;;;5093210;28;20020;-72
2024/01/13 03:51:22;;;;;;;13.87;8.67;;;6.30;78.30;;;;;;5087664;28;20106;-72
2024/01/13 03:53:47;;;;;;;14.73;9.33;;;6.30;78.30;;;;;;5092800;28;20055;-72
2024/01/13 03:56:13;;;;;;;15.97;9.23;;;6.30;78.40;;;;;;5092443;28;20034;-72
2024/01/13 03:58:39;;;;;;;16.40;8.97;;;6.30;78.40;;;;;;5093742;28;20035;-72
2024/01/13 04:01:05;;;;;;;16.37;9.27;;;6.30;78.40;;;;;;5093157;28;20016;-72
2024/01/13 04:03:31;;;;;;;14.87;8.37;;;6.30;78.40;;;;;;5108646;28;20452;-72
2024/01/13 04:05:58;;;;;;;15.07;8.57;;;6.30;78.50;;;;;;5093508;28;20046;-72
2024/01/13 04:08:24;;;;;;;14.43;9.10;;;6.30;78.50;;;;;;5077744;28;20403;-72
2024/01/13 04:10:50;;;;;;;16.17;10.40;;;6.30;78.50;;;;;;5075945;28;20051;-72
2024/01/13 04:13:17;;;;;;;16.37;9.37;;;6.30;78.50;;;;;;5089618;28;20035;-72
2024/01/13 04:15:42;;;;;;;19.00;10.40;;;6.30;78.60;;;;;;5091683;28;20024;-72
2024/01/13 04:18:08;;;;;;;17.87;10.33;;;6.30;78.60;;;;;;5093862;28;20432;-72
2024/01/13 04:20:34;;;;;;;16.67;9.97;;;6.30;78.60;;;;;;5093208;28;20016;-72
2024/01/13 04:23:00;;;;;;;20.00;11.93;;;6.40;78.70;;;;;;5093300;28;20469;-72
2024/01/13 04:25:25;;;;;;;18.37;10.67;;;6.40;78.70;;;;;;5092557;28;20034;-72
2024/01/13 04:27:53;;;;;;;18.37;11.17;;;6.30;78.60;;;;;;5090713;28;20021;-72
2024/01/13 04:30:22;;;;;;;19.20;12.00;;;6.30;78.60;;;;;;5099371;28;20028;-72
2024/01/13 04:32:47;;;;;;;19.73;11.77;;;6.30;78.60;;;;;;5093187;28;20364;-72
2024/01/13 04:35:13;;;;;;;19.67;11.90;;;6.30;78.60;;;;;;5102047;28;20020;-72
2024/01/13 04:37:39;;;;;;;17.80;11.37;;;6.30;78.60;;;;;;5094033;28;20441;-72
2024/01/13 04:40:06;;;;;;;17.70;11.93;;;6.30;78.60;;;;;;5076395;28;20035;-72
2024/01/13 04:42:31;;;;;;;19.63;12.13;;;6.30;78.60;;;;;;5097655;28;20115;-73
2024/01/13 04:44:57;;;;;;;19.47;12.47;;;6.30;78.60;;;;;;5114273;28;20100;-72
2024/01/13 04:47:24;;;;;;;18.87;12.03;;;6.30;78.70;;;;;;5094409;28;20039;-72
2024/01/13 04:49:50;;;;;;;19.83;12.50;;;6.30;78.70;;;;;;5093090;28;20023;-72
2024/01/13 04:52:16;;;;;;;20.00;12.73;;;6.30;78.80;;;;;;5096320;28;20093;-72
2024/01/13 04:54:42;;;;;;;19.80;12.90;;;6.30;78.80;;;;;;5098949;28;20402;-72
2024/01/13 04:57:07;;;;;;;20.10;12.90;;;6.30;78.80;;;;;;5094685;28;20024;-72
2024/01/13 04:59:33;;;;;;;20.37;13.03;;;6.30;78.80;;;;;;5093777;28;20012;-72
2024/01/13 05:01:59;;;;;;;21.27;13.17;;;6.30;78.90;;;;;;5093659;28;20023;-72
2024/01/13 05:04:25;;;;;;;20.10;14.10;;;6.30;78.90;;;;;;5092759;28;20028;-72
2024/01/13 05:06:51;;;;;;;22.13;13.20;;;6.30;79.00;;;;;;5093410;28;20028;-72
2024/01/13 05:09:17;;;;;;;21.10;13.03;;;6.30;79.00;;;;;;5075641;28;20360;-72
2024/01/13 05:11:42;;;;;;;19.17;12.90;;;6.30;79.00;;;;;;5075748;28;20016;-72
2024/01/13 05:14:08;;;;;;;20.23;13.10;;;6.30;79.00;;;;;;5092416;28;20055;-72
2024/01/13 05:16:34;;;;;;;17.23;11.80;;;6.30;78.90;;;;;;5094703;28;20035;-72
2024/01/13 05:19:00;;;;;;;19.67;12.47;;;6.30;79.00;;;;;;5093258;28;20035;-72
2024/01/13 05:21:26;;;;;;;19.37;11.83;;;6.30;79.00;;;;;;5093423;28;20039;-72
2024/01/13 05:23:51;;;;;;;18.10;11.37;;;6.30;79.00;;;;;;5093157;28;20028;-72
2024/01/13 05:26:17;;;;;;;19.43;11.80;;;6.30;79.00;;;;;;5092922;28;20035;-72
2024/01/13 05:28:43;;;;;;;19.27;12.53;;;6.30;79.00;;;;;;5093563;28;20031;-72
2024/01/13 05:31:08;;;;;;;21.83;13.03;;;6.30;79.00;;;;;;5093306;28;20043;-72
2024/01/13 05:33:34;;;;;;;18.50;12.23;;;6.30;79.00;;;;;;5091799;28;20032;-72
2024/01/13 05:36:00;;;;;;;18.20;10.67;;;6.30;79.00;;;;;;5099627;28;20460;-72
2024/01/13 05:38:26;;;;;;;19.17;11.40;;;6.30;79.00;;;;;;5092393;28;20463;-72
2024/01/13 05:40:51;;;;;;;18.17;11.33;;;6.30;79.00;;;;;;5091383;28;20344;-72
2024/01/13 05:43:18;;;;;;;19.20;12.10;;;6.30;79.00;;;;;;5095368;28;20162;-72
2024/01/13 05:45:44;;;;;;;18.27;11.60;;;6.30;79.00;;;;;;5095552;28;20032;-72
2024/01/13 05:48:10;;;;;;;17.83;11.83;;;6.30;79.00;;;;;;5095812;28;20027;-72
2024/01/13 05:50:36;;;;;;;18.23;11.70;;;6.30;79.00;;;;;;5095936;28;20047;-72
2024/01/13 05:53:02;;;;;;;19.90;13.00;;;6.30;79.00;;;;;;5107983;28;20063;-72
2024/01/13 05:55:27;;;;;;;20.37;13.53;;;6.30;79.00;;;;;;5095583;28;20352;-73
2024/01/13 05:57:53;;;;;;;21.57;12.50;;;6.30;79.10;;;;;;5095756;28;20044;-73
2024/01/13 06:00:19;;;;;;;19.10;13.17;;;6.30;79.10;;;;;;5095626;28;20123;-72
2024/01/13 06:02:45;;;;;;;18.33;12.30;;;6.30;79.10;;;;;;5095826;28;20494;-72
2024/01/13 06:05:10;;;;;;;19.27;12.40;;;6.30;79.20;;;;;;5095737;28;20646;-72
2024/01/13 06:07:37;;;;;;;17.27;12.10;;;6.30;79.10;;;;;;5095341;28;20089;-72
2024/01/13 06:10:04;;;;;;;19.42;13.20;;;6.30;79.20;;;;;;5096170;28;20028;-73
2024/01/13 06:12:30;;;;;;;16.97;12.07;;;6.30;79.20;;;;;;5096428;28;20055;-73
2024/01/13 06:14:56;;;;;;;16.40;11.27;;;6.30;79.20;;;;;;5095105;28;20059;-73
2024/01/13 06:17:22;;;;;;;19.50;12.90;;;6.30;79.20;;;;;;5096000;28;20032;-72
2024/01/13 06:19:48;;;;;;;18.57;12.60;;;6.30;79.20;;;;;;5095391;28;20364;-73
2024/01/13 06:22:14;;;;;;;18.47;12.67;;;6.30;79.20;;;;;;5078264;28;20429;-72
2024/01/13 06:24:39;;;;;;;17.20;11.53;;;6.30;79.30;;;;;;5094854;28;20024;-72
2024/01/13 06:27:05;;;;;;;20.37;12.27;;;6.30;79.30;;;;;;5093794;28;20028;-72
2024/01/13 06:29:31;;;;;;;18.40;11.60;;;6.30;79.20;;;;;;5077976;28;20072;-71
2024/01/13 06:31:57;;;;;;;17.93;11.63;;;6.30;79.20;;;;;;5084484;28;20032;-72
2024/01/13 06:34:23;;;;;;;16.93;10.87;;;6.30;79.20;;;;;;5093250;28;20542;-72
2024/01/13 06:36:48;;;;;;;17.77;11.43;;;6.30;79.20;;;;;;5094664;28;20044;-72
2024/01/13 06:39:14;;;;;;;19.37;12.63;;;6.30;79.20;;;;;;5093606;28;20031;-72
2024/01/13 06:41:40;;;;;;;17.03;11.70;;;6.30;79.30;;;;;;5095562;28;20104;-72
2024/01/13 06:44:05;;;;;;;17.27;11.03;;;6.30;79.30;;;;;;5075465;28;20449;-73
2024/01/13 06:46:31;;;;;;;16.40;11.13;;;6.30;79.30;;;;;;5096582;28;20032;-73
2024/01/13 06:48:57;;;;;;;15.60;10.43;;;6.30;79.40;;;;;;5096927;28;20085;-73
2024/01/13 06:51:23;;;;;;;15.73;10.83;;;6.30;79.40;;;;;;5098286;28;20082;-72
2024/01/13 06:53:49;;;;;;;16.03;10.13;;;6.30;79.40;;;;;;5095252;28;20472;-73
2024/01/13 06:56:14;;;;;;;14.40;9.70;;;6.30;79.40;;;;;;5095784;28;20047;-73
2024/01/13 06:58:40;;;;;;;14.93;9.57;;;6.30;79.40;;;;;;5095635;28;20452;-72
2024/01/13 07:01:06;;;;;;;15.27;9.50;;;6.30;79.40;;;;;;5087134;28;20077;-73
2024/01/13 07:03:33;;;;;;;15.35;9.65;;;6.30;79.50;;;;;;5096584;28;20020;-73
2024/01/13 07:05:59;;;;;;;16.20;10.47;;;6.30;79.50;;;;;;5095903;28;20039;-73
2024/01/13 07:08:25;;;;;;;16.03;9.83;;;6.30;79.50;;;;;;5109007;28;20020;-73
2024/01/13 07:10:53;;;;;;;15.50;9.43;;;6.30;79.40;;;;;;5094467;28;20103;-73
2024/01/13 07:13:22;;;;;;;15.93;9.80;;;6.30;79.40;;;;;;5093860;28;20033;-73
2024/01/13 07:15:48;;;;;;;16.33;9.67;;;6.30;79.40;;;;;;5095385;28;20452;-73
2024/01/13 07:18:13;;;;;;;15.57;9.33;;;6.30;79.40;;;;;;5091982;28;20026;-73
2024/01/13 07:20:39;;;;;;;15.23;8.90;;;6.30;79.50;;;;;;5094387;28;20085;-73
2024/01/13 07:23:05;;;;;;;16.60;9.17;;;6.30;79.50;;;;;;5094627;28;20539;-73
2024/01/13 07:25:30;;;;;;;16.33;9.23;;;6.30;79.50;;;;;;5093612;28;20453;-71
2024/01/13 07:27:57;;;;;;;15.43;8.90;;;6.30;79.50;;;;;;5103296;28;20073;-75
2024/01/13 07:30:23;;;;;;;16.43;8.97;;;6.30;79.50;;;;;;5101693;27;20076;-75
2024/01/13 07:32:48;;;;;;;16.57;9.67;;;6.30;79.50;;;;;;5091803;28;20131;-77
2024/01/13 07:35:14;;;;;;;17.13;9.90;;;6.40;79.50;;;;;;5092888;28;20024;-75
2024/01/13 07:37:40;;;;;;;19.50;10.53;;;6.40;79.50;;;;;;5093866;28;20032;-74
2024/01/13 07:40:06;;;;;;;17.33;9.23;;;6.40;79.50;;;;;;5102380;28;20084;-75
2024/01/13 07:42:32;;;;;;;15.73;9.20;;;6.40;79.50;;;;;;5093461;28;20039;-76
2024/01/13 07:44:59;;;;;;;18.33;9.87;;;6.40;79.50;;;;;;5094624;28;20020;-75
2024/01/13 07:47:24;;;;;;;18.67;10.33;;;6.40;79.50;;;;;;5094131;28;20099;-77
2024/01/13 07:49:50;;;;;;;19.63;11.20;;;6.40;79.50;;;;;;5094252;28;20111;-77
2024/01/13 07:52:16;;;;;;;21.73;11.67;;;6.40;79.60;;;;;;5094824;28;20031;-76
2024/01/13 07:54:42;;;;;;;19.73;11.43;;;6.50;79.60;;;;;;5094006;28;20020;-75
2024/01/13 07:57:07;;;;;;;21.33;11.80;;;6.40;79.50;;;;;;5093846;28;20027;-75
2024/01/13 07:59:33;;;;;;;20.73;12.30;;;6.50;79.50;;;;;;5084054;28;20027;-75
2024/01/13 08:01:59;;;;;;;19.07;10.53;;;6.50;79.50;;;;;;5094608;28;20024;-75
2024/01/13 08:04:25;;;;;;;19.60;10.93;;;6.50;79.50;;;;;;5104557;28;20028;-76
2024/01/13 08:06:51;;;;;;;20.57;10.93;;;6.50;79.50;;;;;;5092921;28;20102;-75
2024/01/13 08:09:17;;;;;;;23.20;12.30;;;6.50;79.50;;;;;;5097011;28;20028;-75
2024/01/13 08:11:43;;;;;;;24.07;13.13;;;6.50;79.50;;;;;;5095440;28;20024;-75
2024/01/13 08:14:08;;;;;;;21.70;11.83;;;6.50;80.20;;;;;;5095231;28;20387;-75
2024/01/13 08:16:34;;;;;;;21.60;11.83;;;6.40;79.50;;;;;;5094025;28;20024;-75
2024/01/13 08:19:03;;;;;;;21.20;11.33;;;6.40;79.60;;;;;;5094123;28;20028;-75
2024/01/13 08:21:28;;;;;;;21.83;11.60;;;6.40;79.60;;;;;;5093639;28;20386;-75
2024/01/13 08:23:54;;;;;;;21.57;12.13;;;6.40;79.60;;;;;;5095391;28;20108;-75
2024/01/13 08:26:20;;;;;;;22.60;12.73;;;6.40;79.60;;;;;;5095156;28;20093;-75
2024/01/13 08:28:46;;;;;;;22.70;13.23;;;6.40;79.50;;;;;;5095113;28;20137;-75
2024/01/13 08:31:12;;;;;;;22.70;12.60;;;6.50;79.70;;;;;;5095303;28;20042;-75
2024/01/13 08:33:38;;;;;;;23.53;13.93;;;6.50;79.70;;;;;;5092809;28;20042;-75
2024/01/13 08:36:05;;;;;;;23.43;13.77;;;6.40;79.70;;;;;;5096044;28;20040;-75
2024/01/13 08:38:30;;;;;;;25.17;14.00;;;6.50;79.70;;;;;;5093934;28;20024;-75
2024/01/13 08:40:56;;;;;;;24.17;13.23;;;6.50;79.70;;;;;;5095058;28;20334;-76
2024/01/13 08:43:22;;;;;;;20.90;12.60;;;6.50;79.60;;;;;;5094866;28;20088;-75
2024/01/13 08:45:47;;;;;;;22.10;13.00;;;6.50;79.70;;;;;;5105202;28;20027;-75
2024/01/13 08:48:13;;;;;;;22.87;12.37;;;6.50;79.70;;;;;;5093901;28;20016;-75
2024/01/13 08:50:39;;;;;;;22.30;12.73;;;6.50;79.60;;;;;;5099523;28;20356;-75
2024/01/13 08:53:06;;;;;;;21.83;12.63;;;6.50;79.60;;;;;;5100691;28;20219;-75
2024/01/13 08:55:32;;;;;;;22.80;12.67;;;6.50;79.60;;;;;;5093716;28;20024;-75
2024/01/13 08:57:58;;;;;;;22.70;13.83;;;6.50;79.70;;;;;;5093691;28;20356;-75
2024/01/13 09:00:23;;;;;;;20.23;11.87;;;6.50;79.70;;;;;;5101495;28;20467;-75
2024/01/13 09:02:49;;;;;;;20.03;12.30;;;6.50;79.70;;;;;;5099969;28;20370;-75
2024/01/13 09:05:15;;;;;;;21.57;11.83;;;6.50;79.70;;;;;;5094182;28;20337;-75
2024/01/13 09:07:41;;;;;;;20.83;12.33;;;6.50;79.70;;;;;;5094453;28;20035;-76
2024/01/13 09:10:07;;;;;;;22.30;12.20;;;6.50;79.70;;;;;;5098614;28;20039;-75
2024/01/13 09:12:32;;;;;;;18.63;11.50;;;6.50;79.70;;;;;;5102566;28;20497;-75
2024/01/13 09:14:58;;;;;;;19.93;12.23;;;6.50;79.70;;;;;;5079274;28;20115;-76
2024/01/13 09:17:24;;;;;;;20.53;12.33;;;6.50;79.70;;;;;;5096125;28;20121;-76
2024/01/13 09:19:50;;;;;;;20.33;11.63;;;6.50;79.70;;;;;;5097377;28;20028;-75
2024/01/13 09:22:15;;;;;;;18.60;11.80;;;6.50;79.70;;;;;;5097287;28;20028;-75
2024/01/13 09:24:42;;;;;;;18.37;11.63;;;6.50;79.70;;;;;;5098371;28;20036;-75
2024/01/13 09:27:08;;;;;;;18.00;11.13;;;6.50;79.70;;;;;;5097636;28;20020;-76
2024/01/13 09:29:33;;;;;;;16.80;10.03;;;6.50;79.70;;;;;;5097510;28;20397;-76
2024/01/13 09:31:59;;;;;;;18.67;10.07;;;6.60;79.70;;;;;;5097021;28;20384;-75
2024/01/13 09:34:25;;;;;;;16.10;10.10;;;6.50;79.60;;;;;;5106014;28;20031;-75
2024/01/13 09:36:51;;;;;;;16.53;10.03;;;6.60;79.60;;;;;;5090791;28;20036;-75
2024/01/13 09:39:17;;;;;;;15.17;9.57;;;6.60;79.60;;;;;;5096512;28;20031;-75
2024/01/13 09:41:45;;;;;;;14.47;9.50;;;6.60;79.50;;;;;;5096995;28;20034;-75
2024/01/13 09:44:21;;;;;;;14.57;9.20;;;6.60;79.50;;;;;;5097466;28;20119;-75
2024/01/13 09:46:48;;;;;;;15.97;9.53;;;6.60;79.40;;;;;;5095639;28;20089;-77
2024/01/13 09:49:16;;;;;;;15.00;9.47;;;6.60;79.50;;;;;;5097352;28;20039;-75
2024/01/13 09:51:43;;;;;;;15.73;9.27;;;6.60;79.50;;;;;;5097836;28;20034;-72
2024/01/13 09:54:11;;;;;;;15.87;9.63;;;6.60;79.50;;;;;;5097842;28;20028;-73
2024/01/13 09:56:47;;;;;;;14.77;9.60;;;6.60;79.50;;;;;;5113372;28;20028;-74
2024/01/13 09:59:14;;;;;;;14.67;9.70;;;6.60;79.50;;;;;;5105444;28;20039;-75
2024/01/13 10:01:40;;;;;;;15.37;9.17;;;6.60;79.40;;;;;;5101360;28;20085;-73
2024/01/13 10:04:06;;;;;;;15.77;9.13;;;6.60;79.40;;;;;;5079750;28;20028;-72
2024/01/13 10:06:33;;;;;;;15.70;9.20;;;6.60;79.40;;;;;;5113284;28;20428;-73
2024/01/13 10:08:59;;;;;;;14.37;8.77;;;6.70;79.40;;;;;;5096661;28;20460;-74
2024/01/13 10:11:25;;;;;;;15.83;8.87;;;6.60;79.30;;;;;;5097267;28;20416;-73
2024/01/13 10:14:05;;;;;;;12.60;7.67;;;6.60;79.30;;;;;;5096305;28;20115;-73
2024/01/13 10:16:33;;;;;;;12.87;8.03;;;6.60;79.30;;;;;;5097036;28;20039;-73
2024/01/13 10:19:06;;;;;;;13.13;7.50;;;6.60;79.30;;;;;;5097262;28;20024;-74
2024/01/13 10:21:34;;;;;;;12.63;7.30;;;6.60;79.30;;;;;;5100373;28;20020;-75
2024/01/13 10:24:03;;;;;;;13.13;6.83;;;6.60;79.20;;;;;;5097323;28;20114;-76
2024/01/13 10:26:30;;;;;;;11.70;6.33;;;6.70;79.20;;;;;;5096218;28;20031;-74
2024/01/13 10:28:57;;;;;;;11.27;6.30;;;6.70;79.20;;;;;;5095700;28;20020;-74
2024/01/13 10:31:24;;;;;;;11.90;6.63;;;6.70;79.10;;;;;;5095351;28;20081;-74
2024/01/13 10:33:50;;;;;;;10.40;5.83;;;6.70;79.00;;;;;;5111822;28;20154;-74
2024/01/13 10:36:22;;;;;;;11.87;6.50;;;6.70;79.00;;;;;;5081911;28;20047;-74
2024/01/13 10:38:49;;;;;;;12.53;6.30;;;6.70;79.00;;;;;;5097124;28;20017;-74
2024/01/13 10:41:16;;;;;;;13.03;7.47;;;6.70;79.10;;;;;;5096094;28;20058;-74
2024/01/13 10:43:43;;;;;;;12.03;7.17;;;6.70;79.10;;;;;;5105372;28;20020;-74
2024/01/13 10:46:13;;;;;;;13.43;8.13;;;6.70;79.10;;;;;;5099523;28;20024;-74
2024/01/13 10:48:46;;;;;;;13.40;8.20;;;6.60;79.10;;;;;;5113042;28;20051;-74
2024/01/13 10:51:26;;;;;;;16.00;8.97;;;6.60;79.10;;;;;;5096705;28;20095;-74
2024/01/13 10:53:54;;;;;;;13.93;8.73;;;6.70;79.10;;;;;;5091668;28;20351;-74
2024/01/13 10:56:20;;;;;;;15.47;9.67;;;6.60;79.10;;;;;;5097273;28;20286;-74
2024/01/13 10:58:48;;;;;;;18.57;10.40;;;6.60;79.10;;;;;;5078647;28;20470;-74
2024/01/13 11:01:14;;;;;;;15.73;9.73;;;6.60;79.10;;;;;;5095549;28;20020;-74
2024/01/13 11:03:41;;;;;;;16.77;10.00;;;6.60;79.10;;;;;;5078469;28;20089;-74
2024/01/13 11:06:06;;;;;;;15.97;9.83;;;6.60;79.10;;;;;;5110853;28;20113;-74
2024/01/13 11:08:33;;;;;;;18.07;10.93;;;6.60;79.10;;;;;;5096271;28;20060;-74
2024/01/13 11:11:01;;;;;;;16.80;10.90;;;6.60;79.10;;;;;;5095150;28;20344;-74
2024/01/13 11:13:39;;;;;;;16.47;11.13;;;6.60;79.10;;;;;;5096182;28;20020;-74
2024/01/13 11:16:14;;;;;;;17.80;11.00;;;6.60;79.20;;;;;;5098724;28;20053;-74
2024/01/13 11:18:49;;;;;;;17.73;10.27;;;6.60;79.20;;;;;;5095992;28;20425;-74
2024/01/13 11:21:16;;;;;;;15.93;10.23;;;6.60;79.20;;;;;;5095117;28;20039;-74
2024/01/13 11:23:46;;;;;;;16.03;10.00;;;6.60;79.10;;;;;;5095980;28;20080;-74
2024/01/13 11:26:18;;;;;;;18.33;11.23;;;6.60;79.10;;;;;;5095995;28;20115;-74
2024/01/13 11:28:52;;;;;;;17.90;11.33;;;6.60;79.00;;;;;;5099798;28;20072;-74
2024/01/13 11:32:00;;;;;;;18.43;11.03;;;6.60;79.00;;;;;;5094873;28;20035;-74
2024/01/13 11:34:28;;;;;;;18.37;11.33;;;6.60;78.90;;;;;;5032465;28;20041;-74
2024/01/13 11:36:58;;;;;;;17.63;10.37;;;6.60;78.90;;;;;;5077585;28;20078;-74
2024/01/13 11:39:24;;;;;;;18.70;10.50;;;6.60;78.90;;;;;;5074714;28;20090;-74
2024/01/13 11:41:58;;;;;;;18.63;11.17;;;6.60;78.90;;;;;;5092324;28;20063;-74
2024/01/13 11:44:42;;;;;;;19.37;12.23;;;6.60;78.80;;;;;;5111752;28;20056;-74
2024/01/13 11:47:10;;;;;;;20.57;12.37;;;6.70;78.80;;;;;;5111912;28;20093;-74
2024/01/13 11:49:37;;;;;;;23.90;13.73;;;6.60;78.60;;;;;;5094158;28;20032;-73
2024/01/13 11:52:11;;;;;;;20.57;13.00;;;6.70;78.60;;;;;;5097904;28;20039;-74
2024/01/13 11:54:38;;;;;;;21.03;12.80;;;6.60;78.50;;;;;;5095477;28;20082;-72
2024/01/13 11:57:08;;;;;;;21.67;13.57;;;6.60;78.50;;;;;;5095375;28;20020;-74
2024/01/13 11:59:34;;;;;;;22.27;12.10;;;6.70;78.50;;;;;;5094541;28;20028;-74
2024/01/13 12:02:00;;;;;;;23.23;12.50;;;6.70;78.40;;;;;;5094170;28;20159;-74
2024/01/13 12:04:29;;;;;;;21.10;12.10;;;6.70;78.60;;;;;;5102193;28;20092;-74
2024/01/13 12:06:55;;;;;;;22.67;13.40;;;6.70;78.30;;;;;;5097589;28;20428;-74
2024/01/13 12:09:26;;;;;;;21.10;12.70;;;6.70;78.30;;;;;;5079423;28;20036;-74
2024/01/13 12:11:57;;;;;;;24.07;13.83;;;6.70;78.20;;;;;;5085083;28;20038;-74
2024/01/13 12:14:26;;;;;;;23.10;13.48;;;6.70;78.10;;;;;;5075235;28;20349;-74
2024/01/13 12:16:54;;;;;;;27.20;13.83;;;6.70;78.10;;;;;;5084963;28;20028;-74
2024/01/13 12:19:20;;;;;;;25.10;14.53;;;6.80;78.10;;;;;;5075595;28;20476;-74
2024/01/13 12:21:46;;;;;;;24.27;14.00;;;6.80;78.00;;;;;;5073840;28;20054;-74
2024/01/13 12:24:13;;;;;;;23.43;14.27;;;6.80;78.50;;;;;;5076996;28;20020;-74
2024/01/13 12:26:39;;;;;;;26.40;14.90;;;6.80;77.70;;;;;;5078891;28;20032;-74
2024/01/13 12:29:05;;;;;;;25.93;14.67;;;6.80;77.70;;;;;;5093640;28;20029;-74
2024/01/13 12:31:32;;;;;;;26.47;14.67;;;6.80;77.70;;;;;;5086506;28;20349;-75
2024/01/13 12:34:13;;;;;;;25.90;15.90;;;6.80;77.70;;;;;;5092588;28;20191;-74
2024/01/13 12:36:40;;;;;;;24.73;14.63;;;6.80;77.60;;;;;;5087232;28;20116;-74